Mexico IV — XCFR — position and weather

sailwx.info

Track history (hours):
 
Tides and Currents Weather Stations Pressure Air Temp Water Temp Dewpoint Dewpoint Depression Visibility Wind Speed Wind Dir Waves Ship Positions

Mexico IV

Last reported at 2018-Apr-20 01:49 UTC. Time now 2018-Apr-20 05:11 UTC.
Position N 20°31' W 086°57'.

; draft 1.6 m.

MMSI: 345110009.

Date/timePositionNaut miles runAvg speedWind from/ knotsBaromVisibWave heightAir tempDewpointWater temp
2018-Apr-20 01:49N 20°31' W 086°57'2 7.6
2018-Apr-20 01:30N 20°32' W 086°59'1 0.4
2018-Apr-20 00:21N 20°33' W 086°59'3 8.1
2018-Apr-20 00:00N 20°31' W 086°57'0 0.0
2018-Apr-19 23:30N 20°31' W 086°57'0 0.1
2018-Apr-19 23:00N 20°31' W 086°57'3 6.0
2018-Apr-19 22:30N 20°33' W 086°60'0 0.2
2018-Apr-19 21:14N 20°33' W 086°59'312.7
2018-Apr-19 21:01N 20°31' W 086°57'3 5.0
2018-Apr-19 20:30N 20°32' W 086°59'1 0.7
2018-Apr-19 19:21N 20°33' W 086°60'3 9.7
2018-Apr-19 19:00N 20°31' W 086°57'3 1.6
2018-Apr-19 17:19N 20°33' W 086°59'3 9.1
2018-Apr-19 17:00N 20°31' W 086°57'3 1.1
2018-Apr-19 14:20N 20°33' W 086°59'3 6.8
2018-Apr-19 13:54N 20°31' W 086°57'3 1.6
2018-Apr-19 12:19N 20°33' W 086°59'3 7.5
2018-Apr-19 11:58N 20°31' W 086°57'0 0.0
2018-Apr-19 01:54N 20°31' W 086°57'3 7.0
2018-Apr-19 01:30N 20°33' W 086°59'0 0.1
2018-Apr-19 00:21N 20°33' W 086°59'3 8.2
2018-Apr-19 00:00N 20°31' W 086°57'2 1.4
2018-Apr-18 22:18N 20°33' W 086°59'2 8.6
2018-Apr-18 22:00N 20°31' W 086°57'0 0.0
2018-Apr-18 21:30N 20°31' W 086°57'0 0.1
2018-Apr-18 20:59N 20°31' W 086°57'3 6.2
2018-Apr-18 20:30N 20°33' W 086°59'1 0.5
2018-Apr-18 19:18N 20°32' W 086°59'3 9.4
2018-Apr-18 19:00N 20°31' W 086°57'2 0.6
2018-Apr-18 15:15N 20°32' W 086°59'2 7.1
2018-Apr-18 14:55N 20°31' W 086°57'3 1.5
2018-Apr-18 13:16N 20°32' W 086°59'3 9.2
2018-Apr-18 13:00N 20°31' W 086°57'0 0.0
2018-Apr-18 12:29N 20°31' W 086°57'0 0.0
2018-Apr-18 12:00N 20°31' W 086°57'0 0.0
2018-Apr-18 02:44N 20°31' W 086°57'312.4
2018-Apr-18 02:30N 20°32' W 086°59'1 0.7
2018-Apr-18 01:21N 20°33' W 086°60'410.5
2018-Apr-18 01:01N 20°31' W 086°57'2 1.4
2018-Apr-17 23:19N 20°32' W 086°59'2 6.9
2018-Apr-17 22:58N 20°31' W 086°57'3 1.7
2018-Apr-17 21:21N 20°33' W 086°59'3 7.9
2018-Apr-17 21:00N 20°31' W 086°57'0 0.1
2018-Apr-17 20:26N 20°31' W 086°57'0 0.0
2018-Apr-17 20:00N 20°31' W 086°57'0 0.0
2018-Apr-17 19:27N 20°31' W 086°57'0 0.0
2018-Apr-17 18:57N 20°31' W 086°57'2 1.4
2018-Apr-17 17:20N 20°32' W 086°59'2 6.6
2018-Apr-17 16:59N 20°31' W 086°57'2 1.4
2018-Apr-17 15:16N 20°32' W 086°59'2 9.5
2018-Apr-17 15:01N 20°31' W 086°57'2 1.4
2018-Apr-17 13:18N 20°32' W 086°59'2 6.9
2018-Apr-17 12:57N 20°31' W 086°57'0 0.0
2018-Apr-17 03:13N 20°31' W 086°57'0 0.1
2018-Apr-17 03:00N 20°31' W 086°57'3 1.6
2018-Apr-17 01:19N 20°33' W 086°59'3 8.5
2018-Apr-17 01:01N 20°31' W 086°57'3 1.5
2018-Apr-16 23:16N 20°33' W 086°59'3 9.6
2018-Apr-16 23:00N 20°31' W 086°57'3 6.5
2018-Apr-16 22:29N 20°33' W 086°60'1 0.5
2018-Apr-16 21:20N 20°32' W 086°60'3 9.4
2018-Apr-16 21:00N 20°31' W 086°57'3 1.9
2018-Apr-16 19:20N 20°33' W 086°59'3 9.3
2018-Apr-16 19:00N 20°31' W 086°57'2 1.4
2018-Apr-16 17:18N 20°32' W 086°59'2 8.3
2018-Apr-16 17:00N 20°31' W 086°57'3 1.0
2018-Apr-16 13:41N 20°33' W 086°60'316.7
2018-Apr-16 13:30N 20°31' W 086°57'0 0.8
2018-Apr-16 13:00N 20°30' W 086°57'0 0.0
2018-Apr-16 12:30N 20°30' W 086°57'0 0.7
2018-Apr-16 12:00N 20°31' W 086°57'0 0.0
2018-Apr-16 11:30N 20°31' W 086°57'0 0.0
2018-Apr-16 01:45N 20°31' W 086°57'3 2.2
2018-Apr-16 00:24N 20°33' W 086°59'3 7.7
2018-Apr-16 00:00N 20°31' W 086°57'2 1.3
2018-Apr-15 22:17N 20°32' W 086°59'2 8.2
2018-Apr-15 22:01N 20°31' W 086°57'0 0.0
2018-Apr-15 21:30N 20°31' W 086°57'0 0.0
2018-Apr-15 21:01N 20°31' W 086°57'2 4.7
2018-Apr-15 20:30N 20°32' W 086°59'1 0.4
2018-Apr-15 19:20N 20°33' W 086°59'3 8.0
2018-Apr-15 19:00N 20°31' W 086°57'3 5.7
2018-Apr-15 18:30N 20°33' W 086°59'0 0.2
2018-Apr-15 17:19N 20°33' W 086°59'3 0.2
2018-Apr-15 02:31N 20°31' W 086°57'0 0.0
2018-Apr-15 02:30N 20°31' W 086°57'0 0.0
2018-Apr-15 02:00N 20°31' W 086°57'3 1.8
2018-Apr-15 00:23N 20°33' W 086°59'3 7.5
2018-Apr-15 00:00N 20°31' W 086°57'3 1.9
2018-Apr-14 22:25N 20°33' W 086°59'3 7.7
2018-Apr-14 22:00N 20°31' W 086°57'0 0.1
2018-Apr-14 21:30N 20°31' W 086°57'0 0.0
2018-Apr-14 21:00N 20°31' W 086°57'3 1.7
2018-Apr-14 19:20N 20°33' W 086°59'3 8.5
2018-Apr-14 19:00N 20°31' W 086°57'0 0.0
2018-Apr-14 17:06N 20°31' W 086°57'0 0.0
2018-Apr-14 17:01N 20°31' W 086°57'3 2.0
2018-Apr-14 15:22N 20°33' W 086°60'3 8.4
2018-Apr-14 14:59N 20°31' W 086°57'0 0.1
2018-Apr-14 14:30N 20°31' W 086°57'0 0.0
2018-Apr-14 14:00N 20°31' W 086°57'0 0.0
2018-Apr-14 13:30N 20°31' W 086°57'0 0.0
2018-Apr-14 12:58N 20°31' W 086°57'0 0.0
2018-Apr-14 12:30N 20°31' W 086°57'0 0.0
2018-Apr-14 01:53N 20°31' W 086°57'3 2.2
2018-Apr-14 00:23N 20°33' W 086°59'3 8.8
2018-Apr-14 00:00N 20°31' W 086°57'3 1.8
2018-Apr-13 22:19N 20°33' W 086°59'3 9.6
2018-Apr-13 22:00N 20°31' W 086°57'2 4.1
2018-Apr-13 21:30N 20°29' W 086°58'4 2.8
2018-Apr-13 20:00N 20°33' W 086°60'2 3.3
2018-Apr-13 19:31N 20°32' W 086°59'2 1.3
2018-Apr-13 18:19N 20°33' W 086°60'311.1
2018-Apr-13 18:00N 20°31' W 086°57'2 1.3
2018-Apr-13 16:20N 20°32' W 086°59'2 6.5
2018-Apr-13 16:00N 20°31' W 086°57'0 0.0
2018-Apr-13 02:24N 20°31' W 086°57'0 0.2
2018-Apr-13 02:00N 20°31' W 086°57'3 6.0
2018-Apr-13 01:30N 20°33' W 086°59'0 0.1
2018-Apr-13 00:18N 20°33' W 086°59'310.2
2018-Apr-13 00:00N 20°31' W 086°57'3 1.6
2018-Apr-12 22:16N 20°33' W 086°59'310.7
2018-Apr-12 22:00N 20°31' W 086°57'0 0.0
2018-Apr-12 21:25N 20°31' W 086°57'0 0.0
2018-Apr-12 21:00N 20°31' W 086°57'3 6.8
2018-Apr-12 20:30N 20°33' W 086°59'1 0.4
2018-Apr-12 19:15N 20°33' W 086°59'311.6
2018-Apr-12 19:00N 20°31' W 086°57'3 1.7
2018-Apr-12 17:19N 20°32' W 086°60'3 7.9
2018-Apr-12 16:57N 20°31' W 086°57'3 1.7
2018-Apr-12 15:19N 20°33' W 086°59'3 4.8
2018-Apr-12 14:45N 20°31' W 086°57'3 1.2
2018-Apr-12 12:31N 20°31' W 087°00'017.2
2018-Apr-12 12:30N 20°31' W 086°60'3 5.2
2018-Apr-12 12:01N 20°29' W 086°59'2 4.5
2018-Apr-12 11:29N 20°31' W 086°57'0 0.0
2018-Apr-12 03:18N 20°31' W 086°57'0 0.0
2018-Apr-12 02:57N 20°31' W 086°57'2 1.5
2018-Apr-12 01:17N 20°33' W 086°59'2 8.1
2018-Apr-12 00:59N 20°31' W 086°57'3 1.8
2018-Apr-11 23:27N 20°33' W 086°59'3 6.2
2018-Apr-11 23:00N 20°31' W 086°57'3 5.7
2018-Apr-11 22:31N 20°33' W 086°59'0 0.1
2018-Apr-11 21:17N 20°33' W 086°59'3 9.9
2018-Apr-11 21:00N 20°31' W 086°57'0 0.0
2018-Apr-11 20:08N 20°31' W 086°57'0 0.0
2018-Apr-11 19:56N 20°31' W 086°57'3 1.8
2018-Apr-11 18:22N 20°33' W 086°59'3 7.8
2018-Apr-11 18:00N 20°31' W 086°57'3 1.5
2018-Apr-11 16:18N 20°32' W 086°59'3 8.0
2018-Apr-11 15:58N 20°31' W 086°57'3 1.9
2018-Apr-11 14:18N 20°33' W 086°59'  
Track history (hours):
 
Tides and Currents Weather Stations Pressure Air Temp Water Temp Dewpoint Dewpoint Depression Visibility Wind Speed Wind Dir Waves Ship Positions

Mexico IV

Last reported at 2018-Apr-20 01:49 UTC. Time now 2018-Apr-20 05:11 UTC.
Position N 20°31' W 086°57'.

; draft 1.6 m.

MMSI: 345110009.

Date/timePositionNaut miles runAvg speedWind from/ knotsBaromVisibWave heightAir tempDewpointWater temp
2018-Apr-20 01:49N 20°31' W 086°57'2 7.6
2018-Apr-20 01:30N 20°32' W 086°59'1 0.4
2018-Apr-20 00:21N 20°33' W 086°59'3 8.1
2018-Apr-20 00:00N 20°31' W 086°57'0 0.0
2018-Apr-19 23:30N 20°31' W 086°57'0 0.1
2018-Apr-19 23:00N 20°31' W 086°57'3 6.0
2018-Apr-19 22:30N 20°33' W 086°60'0 0.2
2018-Apr-19 21:14N 20°33' W 086°59'312.7
2018-Apr-19 21:01N 20°31' W 086°57'3 5.0
2018-Apr-19 20:30N 20°32' W 086°59'1 0.7
2018-Apr-19 19:21N 20°33' W 086°60'3 9.7
2018-Apr-19 19:00N 20°31' W 086°57'3 1.6
2018-Apr-19 17:19N 20°33' W 086°59'3 9.1
2018-Apr-19 17:00N 20°31' W 086°57'3 1.1
2018-Apr-19 14:20N 20°33' W 086°59'3 6.8
2018-Apr-19 13:54N 20°31' W 086°57'3 1.6
2018-Apr-19 12:19N 20°33' W 086°59'3 7.5
2018-Apr-19 11:58N 20°31' W 086°57'0 0.0
2018-Apr-19 01:54N 20°31' W 086°57'3 7.0
2018-Apr-19 01:30N 20°33' W 086°59'0 0.1
2018-Apr-19 00:21N 20°33' W 086°59'3 8.2
2018-Apr-19 00:00N 20°31' W 086°57'2 1.4
2018-Apr-18 22:18N 20°33' W 086°59'2 8.6
2018-Apr-18 22:00N 20°31' W 086°57'0 0.0
2018-Apr-18 21:30N 20°31' W 086°57'0 0.1
2018-Apr-18 20:59N 20°31' W 086°57'3 6.2
2018-Apr-18 20:30N 20°33' W 086°59'1 0.5
2018-Apr-18 19:18N 20°32' W 086°59'3 9.4
2018-Apr-18 19:00N 20°31' W 086°57'2 0.6
2018-Apr-18 15:15N 20°32' W 086°59'2 7.1
2018-Apr-18 14:55N 20°31' W 086°57'3 1.5
2018-Apr-18 13:16N 20°32' W 086°59'3 9.2
2018-Apr-18 13:00N 20°31' W 086°57'0 0.0
2018-Apr-18 12:29N 20°31' W 086°57'0 0.0
2018-Apr-18 12:00N 20°31' W 086°57'0 0.0
2018-Apr-18 02:44N 20°31' W 086°57'312.4
2018-Apr-18 02:30N 20°32' W 086°59'1 0.7
2018-Apr-18 01:21N 20°33' W 086°60'410.5
2018-Apr-18 01:01N 20°31' W 086°57'2 1.4
2018-Apr-17 23:19N 20°32' W 086°59'2 6.9
2018-Apr-17 22:58N 20°31' W 086°57'3 1.7
2018-Apr-17 21:21N 20°33' W 086°59'3 7.9
2018-Apr-17 21:00N 20°31' W 086°57'0 0.1
2018-Apr-17 20:26N 20°31' W 086°57'0 0.0
2018-Apr-17 20:00N 20°31' W 086°57'0 0.0
2018-Apr-17 19:27N 20°31' W 086°57'0 0.0
2018-Apr-17 18:57N 20°31' W 086°57'2 1.4
2018-Apr-17 17:20N 20°32' W 086°59'2 6.6
2018-Apr-17 16:59N 20°31' W 086°57'2 1.4
2018-Apr-17 15:16N 20°32' W 086°59'2 9.5
2018-Apr-17 15:01N 20°31' W 086°57'2 1.4
2018-Apr-17 13:18N 20°32' W 086°59'2 6.9
2018-Apr-17 12:57N 20°31' W 086°57'0 0.0
2018-Apr-17 03:13N 20°31' W 086°57'0 0.1
2018-Apr-17 03:00N 20°31' W 086°57'3 1.6
2018-Apr-17 01:19N 20°33' W 086°59'3 8.5
2018-Apr-17 01:01N 20°31' W 086°57'3 1.5
2018-Apr-16 23:16N 20°33' W 086°59'3 9.6
2018-Apr-16 23:00N 20°31' W 086°57'3 6.5
2018-Apr-16 22:29N 20°33' W 086°60'1 0.5
2018-Apr-16 21:20N 20°32' W 086°60'3 9.4
2018-Apr-16 21:00N 20°31' W 086°57'3 1.9
2018-Apr-16 19:20N 20°33' W 086°59'3 9.3
2018-Apr-16 19:00N 20°31' W 086°57'2 1.4
2018-Apr-16 17:18N 20°32' W 086°59'2 8.3
2018-Apr-16 17:00N 20°31' W 086°57'3 1.0
2018-Apr-16 13:41N 20°33' W 086°60'316.7
2018-Apr-16 13:30N 20°31' W 086°57'0 0.8
2018-Apr-16 13:00N 20°30' W 086°57'0 0.0
2018-Apr-16 12:30N 20°30' W 086°57'0 0.7
2018-Apr-16 12:00N 20°31' W 086°57'0 0.0
2018-Apr-16 11:30N 20°31' W 086°57'0 0.0
2018-Apr-16 01:45N 20°31' W 086°57'3 2.2
2018-Apr-16 00:24N 20°33' W 086°59'3 7.7
2018-Apr-16 00:00N 20°31' W 086°57'2 1.3
2018-Apr-15 22:17N 20°32' W 086°59'2 8.2
2018-Apr-15 22:01N 20°31' W 086°57'0 0.0
2018-Apr-15 21:30N 20°31' W 086°57'0 0.0
2018-Apr-15 21:01N 20°31' W 086°57'2 4.7
2018-Apr-15 20:30N 20°32' W 086°59'1 0.4
2018-Apr-15 19:20N 20°33' W 086°59'3 8.0
2018-Apr-15 19:00N 20°31' W 086°57'3 5.7
2018-Apr-15 18:30N 20°33' W 086°59'0 0.2
2018-Apr-15 17:19N 20°33' W 086°59'3 0.2
2018-Apr-15 02:31N 20°31' W 086°57'0 0.0
2018-Apr-15 02:30N 20°31' W 086°57'0 0.0
2018-Apr-15 02:00N 20°31' W 086°57'3 1.8
2018-Apr-15 00:23N 20°33' W 086°59'3 7.5
2018-Apr-15 00:00N 20°31' W 086°57'3 1.9
2018-Apr-14 22:25N 20°33' W 086°59'3 7.7
2018-Apr-14 22:00N 20°31' W 086°57'0 0.1
2018-Apr-14 21:30N 20°31' W 086°57'0 0.0
2018-Apr-14 21:00N 20°31' W 086°57'3 1.7
2018-Apr-14 19:20N 20°33' W 086°59'3 8.5
2018-Apr-14 19:00N 20°31' W 086°57'0 0.0
2018-Apr-14 17:06N 20°31' W 086°57'0 0.0
2018-Apr-14 17:01N 20°31' W 086°57'3 2.0
2018-Apr-14 15:22N 20°33' W 086°60'3 8.4
2018-Apr-14 14:59N 20°31' W 086°57'0 0.1
2018-Apr-14 14:30N 20°31' W 086°57'0 0.0
2018-Apr-14 14:00N 20°31' W 086°57'0 0.0
2018-Apr-14 13:30N 20°31' W 086°57'0 0.0
2018-Apr-14 12:58N 20°31' W 086°57'0 0.0
2018-Apr-14 12:30N 20°31' W 086°57'0 0.0
2018-Apr-14 01:53N 20°31' W 086°57'3 2.2
2018-Apr-14 00:23N 20°33' W 086°59'3 8.8
2018-Apr-14 00:00N 20°31' W 086°57'3 1.8
2018-Apr-13 22:19N 20°33' W 086°59'3 9.6
2018-Apr-13 22:00N 20°31' W 086°57'2 4.1
2018-Apr-13 21:30N 20°29' W 086°58'4 2.8
2018-Apr-13 20:00N 20°33' W 086°60'2 3.3
2018-Apr-13 19:31N 20°32' W 086°59'2 1.3
2018-Apr-13 18:19N 20°33' W 086°60'311.1
2018-Apr-13 18:00N 20°31' W 086°57'2 1.3
2018-Apr-13 16:20N 20°32' W 086°59'2 6.5
2018-Apr-13 16:00N 20°31' W 086°57'0 0.0
2018-Apr-13 02:24N 20°31' W 086°57'0 0.2
2018-Apr-13 02:00N 20°31' W 086°57'3 6.0
2018-Apr-13 01:30N 20°33' W 086°59'0 0.1
2018-Apr-13 00:18N 20°33' W 086°59'310.2
2018-Apr-13 00:00N 20°31' W 086°57'3 1.6
2018-Apr-12 22:16N 20°33' W 086°59'310.7
2018-Apr-12 22:00N 20°31' W 086°57'0 0.0
2018-Apr-12 21:25N 20°31' W 086°57'0 0.0
2018-Apr-12 21:00N 20°31' W 086°57'3 6.8
2018-Apr-12 20:30N 20°33' W 086°59'1 0.4
2018-Apr-12 19:15N 20°33' W 086°59'311.6
2018-Apr-12 19:00N 20°31' W 086°57'3 1.7
2018-Apr-12 17:19N 20°32' W 086°60'3 7.9
2018-Apr-12 16:57N 20°31' W 086°57'3 1.7
2018-Apr-12 15:19N 20°33' W 086°59'3 4.8
2018-Apr-12 14:45N 20°31' W 086°57'3 1.2
2018-Apr-12 12:31N 20°31' W 087°00'017.2
2018-Apr-12 12:30N 20°31' W 086°60'3 5.2
2018-Apr-12 12:01N 20°29' W 086°59'2 4.5
2018-Apr-12 11:29N 20°31' W 086°57'0 0.0
2018-Apr-12 03:18N 20°31' W 086°57'0 0.0
2018-Apr-12 02:57N 20°31' W 086°57'2 1.5
2018-Apr-12 01:17N 20°33' W 086°59'2 8.1
2018-Apr-12 00:59N 20°31' W 086°57'3 1.8
2018-Apr-11 23:27N 20°33' W 086°59'3 6.2
2018-Apr-11 23:00N 20°31' W 086°57'3 5.7
2018-Apr-11 22:31N 20°33' W 086°59'0 0.1
2018-Apr-11 21:17N 20°33' W 086°59'3 9.9
2018-Apr-11 21:00N 20°31' W 086°57'0 0.0
2018-Apr-11 20:08N 20°31' W 086°57'0 0.0
2018-Apr-11 19:56N 20°31' W 086°57'3 1.8
2018-Apr-11 18:22N 20°33' W 086°59'3 7.8
2018-Apr-11 18:00N 20°31' W 086°57'3 1.5
2018-Apr-11 16:18N 20°32' W 086°59'3 8.0
2018-Apr-11 15:58N 20°31' W 086°57'3 1.9
2018-Apr-11 14:18N 20°33' W 086°59'  

Dump ship's entire track history